sensor_id;sensor_type;location;lat;lon;timestamp;temperature;humidity
12726;DHT22;6427;49.754;6.106;2023-07-13T00:00:39;17.40;88.50
12726;DHT22;6427;49.754;6.106;2023-07-13T00:03:07;17.40;88.90
12726;DHT22;6427;49.754;6.106;2023-07-13T00:05:34;17.40;89.30
12726;DHT22;6427;49.754;6.106;2023-07-13T00:08:02;17.60;89.70
12726;DHT22;6427;49.754;6.106;2023-07-13T00:10:29;17.60;89.30
12726;DHT22;6427;49.754;6.106;2023-07-13T00:12:57;17.50;89.70
12726;DHT22;6427;49.754;6.106;2023-07-13T00:15:25;17.70;90.30
12726;DHT22;6427;49.754;6.106;2023-07-13T00:17:52;17.60;90.10
12726;DHT22;6427;49.754;6.106;2023-07-13T00:20:20;17.50;90.40
12726;DHT22;6427;49.754;6.106;2023-07-13T00:22:48;17.70;90.50
12726;DHT22;6427;49.754;6.106;2023-07-13T00:25:15;17.70;90.40
12726;DHT22;6427;49.754;6.106;2023-07-13T00:27:43;17.80;90.50
12726;DHT22;6427;49.754;6.106;2023-07-13T00:30:10;17.80;90.40
12726;DHT22;6427;49.754;6.106;2023-07-13T00:32:38;17.70;90.70
12726;DHT22;6427;49.754;6.106;2023-07-13T00:35:05;17.60;90.90
12726;DHT22;6427;49.754;6.106;2023-07-13T00:37:33;17.50;91.10
12726;DHT22;6427;49.754;6.106;2023-07-13T00:40:02;17.50;91.30
12726;DHT22;6427;49.754;6.106;2023-07-13T00:42:28;17.40;91.40
12726;DHT22;6427;49.754;6.106;2023-07-13T00:45:06;17.30;91.60
12726;DHT22;6427;49.754;6.106;2023-07-13T00:47:32;17.30;91.70
12726;DHT22;6427;49.754;6.106;2023-07-13T00:50:00;17.30;92.00
12726;DHT22;6427;49.754;6.106;2023-07-13T00:52:27;17.30;92.10
12726;DHT22;6427;49.754;6.106;2023-07-13T00:54:55;17.30;92.20
12726;DHT22;6427;49.754;6.106;2023-07-13T00:57:23;17.20;92.30
12726;DHT22;6427;49.754;6.106;2023-07-13T00:59:52;17.20;92.40
12726;DHT22;6427;49.754;6.106;2023-07-13T01:02:18;17.20;92.50
12726;DHT22;6427;49.754;6.106;2023-07-13T01:04:45;17.20;92.70
12726;DHT22;6427;49.754;6.106;2023-07-13T01:07:13;17.40;92.80
12726;DHT22;6427;49.754;6.106;2023-07-13T01:09:40;17.40;92.60
12726;DHT22;6427;49.754;6.106;2023-07-13T01:12:08;17.40;92.70
12726;DHT22;6427;49.754;6.106;2023-07-13T01:14:36;17.50;92.60
12726;DHT22;6427;49.754;6.106;2023-07-13T01:17:04;17.50;92.60
12726;DHT22;6427;49.754;6.106;2023-07-13T01:19:45;17.40;93.20
12726;DHT22;6427;49.754;6.106;2023-07-13T01:22:08;17.30;93.50
12726;DHT22;6427;49.754;6.106;2023-07-13T01:24:32;17.30;93.70
12726;DHT22;6427;49.754;6.106;2023-07-13T01:27:00;17.30;93.90
12726;DHT22;6427;49.754;6.106;2023-07-13T01:29:28;17.30;93.90
12726;DHT22;6427;49.754;6.106;2023-07-13T01:31:55;17.50;94.10
12726;DHT22;6427;49.754;6.106;2023-07-13T01:34:23;17.50;93.90
12726;DHT22;6427;49.754;6.106;2023-07-13T01:36:51;17.40;94.10
12726;DHT22;6427;49.754;6.106;2023-07-13T01:39:22;17.50;94.20
12726;DHT22;6427;49.754;6.106;2023-07-13T01:41:49;17.50;94.20
12726;DHT22;6427;49.754;6.106;2023-07-13T01:44:18;17.40;94.70
12726;DHT22;6427;49.754;6.106;2023-07-13T01:46:45;17.40;94.70
12726;DHT22;6427;49.754;6.106;2023-07-13T01:49:14;17.30;95.10
12726;DHT22;6427;49.754;6.106;2023-07-13T01:51:41;17.30;95.10
12726;DHT22;6427;49.754;6.106;2023-07-13T01:54:10;17.50;96.00
12726;DHT22;6427;49.754;6.106;2023-07-13T01:56:37;17.50;95.60
12726;DHT22;6427;49.754;6.106;2023-07-13T01:59:05;17.40;95.70
12726;DHT22;6427;49.754;6.106;2023-07-13T02:01:33;17.30;95.70
12726;DHT22;6427;49.754;6.106;2023-07-13T02:04:01;17.30;95.80
12726;DHT22;6427;49.754;6.106;2023-07-13T02:06:28;17.30;96.00
12726;DHT22;6427;49.754;6.106;2023-07-13T02:08:56;17.20;96.20
12726;DHT22;6427;49.754;6.106;2023-07-13T02:11:23;17.20;96.40
12726;DHT22;6427;49.754;6.106;2023-07-13T02:13:51;17.10;96.50
12726;DHT22;6427;49.754;6.106;2023-07-13T02:16:19;17.10;96.70
12726;DHT22;6427;49.754;6.106;2023-07-13T02:18:47;17.10;96.90
12726;DHT22;6427;49.754;6.106;2023-07-13T02:21:15;17.10;97.50
12726;DHT22;6427;49.754;6.106;2023-07-13T02:23:43;17.00;97.20
12726;DHT22;6427;49.754;6.106;2023-07-13T02:26:11;17.00;97.40
12726;DHT22;6427;49.754;6.106;2023-07-13T02:28:39;17.00;97.40
12726;DHT22;6427;49.754;6.106;2023-07-13T02:31:10;17.00;97.30
12726;DHT22;6427;49.754;6.106;2023-07-13T02:33:38;16.90;97.60
12726;DHT22;6427;49.754;6.106;2023-07-13T02:36:05;16.90;97.60
12726;DHT22;6427;49.754;6.106;2023-07-13T02:38:33;16.90;97.70
12726;DHT22;6427;49.754;6.106;2023-07-13T02:41:00;17.10;97.80
12726;DHT22;6427;49.754;6.106;2023-07-13T02:43:28;17.10;97.50
12726;DHT22;6427;49.754;6.106;2023-07-13T02:45:55;17.00;97.70
12726;DHT22;6427;49.754;6.106;2023-07-13T02:48:23;16.90;97.70
12726;DHT22;6427;49.754;6.106;2023-07-13T02:50:51;16.90;97.80
12726;DHT22;6427;49.754;6.106;2023-07-13T02:53:19;16.80;98.20
12726;DHT22;6427;49.754;6.106;2023-07-13T02:55:47;16.80;98.20
12726;DHT22;6427;49.754;6.106;2023-07-13T02:58:14;16.80;98.30
12726;DHT22;6427;49.754;6.106;2023-07-13T03:00:42;16.70;98.40
12726;DHT22;6427;49.754;6.106;2023-07-13T03:03:10;16.70;98.60
12726;DHT22;6427;49.754;6.106;2023-07-13T03:05:40;16.70;98.70
12726;DHT22;6427;49.754;6.106;2023-07-13T03:08:05;16.70;98.80
12726;DHT22;6427;49.754;6.106;2023-07-13T03:10:33;16.70;99.00
12726;DHT22;6427;49.754;6.106;2023-07-13T03:13:01;16.90;99.30
12726;DHT22;6427;49.754;6.106;2023-07-13T03:15:28;16.80;99.00
12726;DHT22;6427;49.754;6.106;2023-07-13T03:17:56;16.80;99.10
12726;DHT22;6427;49.754;6.106;2023-07-13T03:20:23;16.70;99.30
12726;DHT22;6427;49.754;6.106;2023-07-13T03:22:51;16.70;99.60
12726;DHT22;6427;49.754;6.106;2023-07-13T03:25:19;16.60;99.80
12726;DHT22;6427;49.754;6.106;2023-07-13T03:27:46;16.60;99.90
12726;DHT22;6427;49.754;6.106;2023-07-13T03:30:14;16.50;99.90
12726;DHT22;6427;49.754;6.106;2023-07-13T03:32:42;16.40;99.90
12726;DHT22;6427;49.754;6.106;2023-07-13T03:35:10;16.40;99.90
12726;DHT22;6427;49.754;6.106;2023-07-13T03:37:37;16.40;99.90
12726;DHT22;6427;49.754;6.106;2023-07-13T03:40:05;16.30;99.90
12726;DHT22;6427;49.754;6.106;2023-07-13T03:42:33;16.30;99.90
12726;DHT22;6427;49.754;6.106;2023-07-13T03:45:01;16.50;99.90
12726;DHT22;6427;49.754;6.106;2023-07-13T03:47:29;16.40;99.90
12726;DHT22;6427;49.754;6.106;2023-07-13T03:49:57;16.40;99.90
12726;DHT22;6427;49.754;6.106;2023-07-13T03:52:25;16.30;99.90
12726;DHT22;6427;49.754;6.106;2023-07-13T03:54:52;16.20;99.90
12726;DHT22;6427;49.754;6.106;2023-07-13T03:57:20;16.20;99.90
12726;DHT22;6427;49.754;6.106;2023-07-13T03:59:47;16.10;99.90
12726;DHT22;6427;49.754;6.106;2023-07-13T04:02:16;16.10;99.90
12726;DHT22;6427;49.754;6.106;2023-07-13T04:04:43;16.00;99.90
12726;DHT22;6427;49.754;6.106;2023-07-13T04:07:11;16.00;99.90
12726;DHT22;6427;49.754;6.106;2023-07-13T04:09:39;16.00;99.90
12726;DHT22;6427;49.754;6.106;2023-07-13T04:12:06;16.00;99.90
12726;DHT22;6427;49.754;6.106;2023-07-13T04:14:34;15.90;99.90
12726;DHT22;6427;49.754;6.106;2023-07-13T04:17:02;16.20;99.90
12726;DHT22;6427;49.754;6.106;2023-07-13T04:19:30;16.10;99.90
12726;DHT22;6427;49.754;6.106;2023-07-13T04:21:57;16.10;99.90
12726;DHT22;6427;49.754;6.106;2023-07-13T04:24:25;16.00;99.90
12726;DHT22;6427;49.754;6.106;2023-07-13T04:26:53;16.20;99.90
12726;DHT22;6427;49.754;6.106;2023-07-13T04:29:20;16.20;99.90
12726;DHT22;6427;49.754;6.106;2023-07-13T04:31:48;16.20;99.90
12726;DHT22;6427;49.754;6.106;2023-07-13T04:34:15;16.10;99.90
12726;DHT22;6427;49.754;6.106;2023-07-13T04:36:43;16.10;99.90
12726;DHT22;6427;49.754;6.106;2023-07-13T04:39:11;16.10;99.90
12726;DHT22;6427;49.754;6.106;2023-07-13T04:41:38;16.00;99.90
12726;DHT22;6427;49.754;6.106;2023-07-13T04:44:06;16.00;99.90
12726;DHT22;6427;49.754;6.106;2023-07-13T04:46:33;16.00;99.90
12726;DHT22;6427;49.754;6.106;2023-07-13T04:49:01;16.00;99.90
12726;DHT22;6427;49.754;6.106;2023-07-13T04:51:28;16.00;99.90
12726;DHT22;6427;49.754;6.106;2023-07-13T04:53:56;16.00;99.90
12726;DHT22;6427;49.754;6.106;2023-07-13T04:56:24;16.10;99.90
12726;DHT22;6427;49.754;6.106;2023-07-13T04:58:51;16.10;99.90
12726;DHT22;6427;49.754;6.106;2023-07-13T05:01:19;16.10;99.90
12726;DHT22;6427;49.754;6.106;2023-07-13T05:03:46;16.10;99.90
12726;DHT22;6427;49.754;6.106;2023-07-13T05:06:15;16.20;99.90
12726;DHT22;6427;49.754;6.106;2023-07-13T05:08:43;16.20;99.90
12726;DHT22;6427;49.754;6.106;2023-07-13T05:11:11;16.20;99.90
12726;DHT22;6427;49.754;6.106;2023-07-13T05:13:38;16.30;99.90
12726;DHT22;6427;49.754;6.106;2023-07-13T05:16:06;16.60;99.90
12726;DHT22;6427;49.754;6.106;2023-07-13T05:18:34;16.90;99.90
12726;DHT22;6427;49.754;6.106;2023-07-13T05:21:02;16.90;99.90
12726;DHT22;6427;49.754;6.106;2023-07-13T05:23:29;16.90;99.90
12726;DHT22;6427;49.754;6.106;2023-07-13T05:25:56;17.10;99.90
12726;DHT22;6427;49.754;6.106;2023-07-13T05:28:24;17.10;99.90
12726;DHT22;6427;49.754;6.106;2023-07-13T05:30:52;17.30;99.90
12726;DHT22;6427;49.754;6.106;2023-07-13T05:33:19;17.20;99.90
12726;DHT22;6427;49.754;6.106;2023-07-13T05:35:47;17.10;99.90
12726;DHT22;6427;49.754;6.106;2023-07-13T05:38:14;17.10;99.90
12726;DHT22;6427;49.754;6.106;2023-07-13T05:40:45;17.30;99.90
12726;DHT22;6427;49.754;6.106;2023-07-13T05:43:12;17.30;99.90
12726;DHT22;6427;49.754;6.106;2023-07-13T05:45:40;17.30;99.90
12726;DHT22;6427;49.754;6.106;2023-07-13T05:48:08;17.30;99.90
12726;DHT22;6427;49.754;6.106;2023-07-13T05:50:36;17.30;99.90
12726;DHT22;6427;49.754;6.106;2023-07-13T05:53:03;17.30;99.90
12726;DHT22;6427;49.754;6.106;2023-07-13T05:55:31;17.60;99.70
12726;DHT22;6427;49.754;6.106;2023-07-13T05:57:59;17.60;99.40
12726;DHT22;6427;49.754;6.106;2023-07-13T06:00:26;17.60;99.40
12726;DHT22;6427;49.754;6.106;2023-07-13T06:02:55;17.60;99.40
12726;DHT22;6427;49.754;6.106;2023-07-13T06:05:21;17.60;99.30
12726;DHT22;6427;49.754;6.106;2023-07-13T06:07:49;17.70;99.20
12726;DHT22;6427;49.754;6.106;2023-07-13T06:10:16;17.70;99.20
12726;DHT22;6427;49.754;6.106;2023-07-13T06:12:44;17.80;99.20
12726;DHT22;6427;49.754;6.106;2023-07-13T06:15:12;17.90;99.30
12726;DHT22;6427;49.754;6.106;2023-07-13T06:17:39;18.00;99.20
12726;DHT22;6427;49.754;6.106;2023-07-13T06:20:07;18.10;98.90
12726;DHT22;6427;49.754;6.106;2023-07-13T06:22:35;18.30;98.90
12726;DHT22;6427;49.754;6.106;2023-07-13T06:25:02;18.40;98.50
12726;DHT22;6427;49.754;6.106;2023-07-13T06:27:30;18.40;98.30
12726;DHT22;6427;49.754;6.106;2023-07-13T06:29:58;18.60;98.00
12726;DHT22;6427;49.754;6.106;2023-07-13T06:32:26;18.60;98.00
12726;DHT22;6427;49.754;6.106;2023-07-13T06:34:53;18.70;97.90
12726;DHT22;6427;49.754;6.106;2023-07-13T06:37:21;18.80;97.70
12726;DHT22;6427;49.754;6.106;2023-07-13T06:39:49;18.80;97.40
12726;DHT22;6427;49.754;6.106;2023-07-13T06:42:16;18.90;97.10
12726;DHT22;6427;49.754;6.106;2023-07-13T06:44:44;19.00;96.90
12726;DHT22;6427;49.754;6.106;2023-07-13T06:47:11;19.30;96.30
12726;DHT22;6427;49.754;6.106;2023-07-13T06:49:39;19.30;95.90
12726;DHT22;6427;49.754;6.106;2023-07-13T06:52:07;19.30;95.70
12726;DHT22;6427;49.754;6.106;2023-07-13T06:54:34;19.60;95.20
12726;DHT22;6427;49.754;6.106;2023-07-13T06:57:02;19.60;94.90
12726;DHT22;6427;49.754;6.106;2023-07-13T06:59:29;19.80;94.40
12726;DHT22;6427;49.754;6.106;2023-07-13T07:01:57;19.80;94.10
12726;DHT22;6427;49.754;6.106;2023-07-13T07:04:25;19.70;93.70
12726;DHT22;6427;49.754;6.106;2023-07-13T07:06:54;19.70;93.80
12726;DHT22;6427;49.754;6.106;2023-07-13T07:09:21;19.70;93.80
12726;DHT22;6427;49.754;6.106;2023-07-13T07:11:49;19.70;93.50
12726;DHT22;6427;49.754;6.106;2023-07-13T07:14:16;19.70;93.30
12726;DHT22;6427;49.754;6.106;2023-07-13T07:16:44;19.70;93.10
12726;DHT22;6427;49.754;6.106;2023-07-13T07:19:12;19.80;92.90
12726;DHT22;6427;49.754;6.106;2023-07-13T07:21:40;19.80;92.80
12726;DHT22;6427;49.754;6.106;2023-07-13T07:24:08;19.90;92.40
12726;DHT22;6427;49.754;6.106;2023-07-13T07:26:35;19.90;92.10
12726;DHT22;6427;49.754;6.106;2023-07-13T07:29:03;19.90;91.70
12726;DHT22;6427;49.754;6.106;2023-07-13T07:31:30;19.90;91.70
12726;DHT22;6427;49.754;6.106;2023-07-13T07:33:58;20.00;91.80
12726;DHT22;6427;49.754;6.106;2023-07-13T07:36:26;20.00;91.70
12726;DHT22;6427;49.754;6.106;2023-07-13T07:38:53;20.00;91.20
12726;DHT22;6427;49.754;6.106;2023-07-13T07:41:21;20.10;91.10
12726;DHT22;6427;49.754;6.106;2023-07-13T07:43:48;20.20;91.10
12726;DHT22;6427;49.754;6.106;2023-07-13T07:46:16;20.30;90.90
12726;DHT22;6427;49.754;6.106;2023-07-13T07:48:43;20.40;90.70
12726;DHT22;6427;49.754;6.106;2023-07-13T07:51:11;20.40;90.60
12726;DHT22;6427;49.754;6.106;2023-07-13T07:53:39;20.50;90.40
12726;DHT22;6427;49.754;6.106;2023-07-13T07:56:06;20.50;90.30
12726;DHT22;6427;49.754;6.106;2023-07-13T07:58:34;20.40;90.30
12726;DHT22;6427;49.754;6.106;2023-07-13T08:01:02;20.50;90.30
12726;DHT22;6427;49.754;6.106;2023-07-13T08:03:29;20.50;90.00
12726;DHT22;6427;49.754;6.106;2023-07-13T08:05:57;20.50;89.30
12726;DHT22;6427;49.754;6.106;2023-07-13T08:08:24;20.50;88.90
12726;DHT22;6427;49.754;6.106;2023-07-13T08:10:52;20.50;88.10
12726;DHT22;6427;49.754;6.106;2023-07-13T08:13:19;20.60;87.60
12726;DHT22;6427;49.754;6.106;2023-07-13T08:15:47;20.70;86.50
12726;DHT22;6427;49.754;6.106;2023-07-13T08:18:15;20.80;85.40
12726;DHT22;6427;49.754;6.106;2023-07-13T08:20:43;20.90;83.70
12726;DHT22;6427;49.754;6.106;2023-07-13T08:23:11;20.90;83.70
12726;DHT22;6427;49.754;6.106;2023-07-13T08:25:38;21.00;83.50
12726;DHT22;6427;49.754;6.106;2023-07-13T08:28:06;21.00;82.80
12726;DHT22;6427;49.754;6.106;2023-07-13T08:30:33;21.10;82.00
12726;DHT22;6427;49.754;6.106;2023-07-13T08:33:01;21.10;80.70
12726;DHT22;6427;49.754;6.106;2023-07-13T08:35:29;21.20;79.80
12726;DHT22;6427;49.754;6.106;2023-07-13T08:37:59;21.20;79.70
12726;DHT22;6427;49.754;6.106;2023-07-13T08:40:27;21.30;77.90
12726;DHT22;6427;49.754;6.106;2023-07-13T08:42:57;21.30;76.00
12726;DHT22;6427;49.754;6.106;2023-07-13T08:45:24;21.30;76.00
12726;DHT22;6427;49.754;6.106;2023-07-13T08:47:55;21.40;76.30
12726;DHT22;6427;49.754;6.106;2023-07-13T08:50:23;21.30;75.40
12726;DHT22;6427;49.754;6.106;2023-07-13T08:52:49;21.40;75.20
12726;DHT22;6427;49.754;6.106;2023-07-13T08:55:27;21.50;75.20
12726;DHT22;6427;49.754;6.106;2023-07-13T08:57:54;21.60;74.50
12726;DHT22;6427;49.754;6.106;2023-07-13T09:00:20;21.60;74.40
12726;DHT22;6427;49.754;6.106;2023-07-13T09:02:56;21.70;74.00
12726;DHT22;6427;49.754;6.106;2023-07-13T09:05:38;22.00;72.50
12726;DHT22;6427;49.754;6.106;2023-07-13T09:10:58;21.90;72.20
12726;DHT22;6427;49.754;6.106;2023-07-13T09:13:37;22.00;71.90
12726;DHT22;6427;49.754;6.106;2023-07-13T09:16:00;22.20;71.80
12726;DHT22;6427;49.754;6.106;2023-07-13T09:18:35;22.20;71.40
12726;DHT22;6427;49.754;6.106;2023-07-13T09:21:14;22.20;71.60
12726;DHT22;6427;49.754;6.106;2023-07-13T09:23:40;22.10;70.90
12726;DHT22;6427;49.754;6.106;2023-07-13T09:26:15;22.20;71.00
12726;DHT22;6427;49.754;6.106;2023-07-13T09:28:45;22.20;71.10
12726;DHT22;6427;49.754;6.106;2023-07-13T09:33:45;22.20;70.80
12726;DHT22;6427;49.754;6.106;2023-07-13T09:36:19;22.50;70.70
12726;DHT22;6427;49.754;6.106;2023-07-13T09:38:46;22.50;70.10
12726;DHT22;6427;49.754;6.106;2023-07-13T09:41:26;22.60;69.50
12726;DHT22;6427;49.754;6.106;2023-07-13T09:44:13;22.60;69.50
12726;DHT22;6427;49.754;6.106;2023-07-13T09:46:37;22.60;69.00
12726;DHT22;6427;49.754;6.106;2023-07-13T09:49:06;22.70;66.80
12726;DHT22;6427;49.754;6.106;2023-07-13T09:51:33;22.70;66.80
12726;DHT22;6427;49.754;6.106;2023-07-13T09:54:00;22.70;66.30
12726;DHT22;6427;49.754;6.106;2023-07-13T09:56:28;22.80;65.60
12726;DHT22;6427;49.754;6.106;2023-07-13T09:58:56;22.80;65.50
12726;DHT22;6427;49.754;6.106;2023-07-13T10:01:37;22.80;65.50
12726;DHT22;6427;49.754;6.106;2023-07-13T10:04:11;22.80;65.70
12726;DHT22;6427;49.754;6.106;2023-07-13T10:06:38;23.10;63.90
12726;DHT22;6427;49.754;6.106;2023-07-13T10:09:06;23.10;63.30
12726;DHT22;6427;49.754;6.106;2023-07-13T10:11:34;23.00;63.30
12726;DHT22;6427;49.754;6.106;2023-07-13T10:14:01;23.10;63.20
12726;DHT22;6427;49.754;6.106;2023-07-13T10:16:29;23.10;64.00
12726;DHT22;6427;49.754;6.106;2023-07-13T10:18:57;23.10;63.40
12726;DHT22;6427;49.754;6.106;2023-07-13T10:21:27;23.20;61.90
12726;DHT22;6427;49.754;6.106;2023-07-13T10:23:56;23.20;61.80
12726;DHT22;6427;49.754;6.106;2023-07-13T10:26:26;23.20;62.00
12726;DHT22;6427;49.754;6.106;2023-07-13T10:28:54;23.30;61.80
12726;DHT22;6427;49.754;6.106;2023-07-13T10:31:21;23.30;61.40
12726;DHT22;6427;49.754;6.106;2023-07-13T10:33:50;23.40;59.70
12726;DHT22;6427;49.754;6.106;2023-07-13T10:36:33;23.40;59.60
12726;DHT22;6427;49.754;6.106;2023-07-13T10:39:01;23.40;59.20
12726;DHT22;6427;49.754;6.106;2023-07-13T10:41:28;23.70;58.80
12726;DHT22;6427;49.754;6.106;2023-07-13T10:43:55;23.60;58.40
12726;DHT22;6427;49.754;6.106;2023-07-13T10:46:25;23.70;58.30
12726;DHT22;6427;49.754;6.106;2023-07-13T10:48:52;23.70;58.00
12726;DHT22;6427;49.754;6.106;2023-07-13T10:51:19;23.70;57.80
12726;DHT22;6427;49.754;6.106;2023-07-13T10:53:46;23.60;58.30
12726;DHT22;6427;49.754;6.106;2023-07-13T10:56:23;23.70;58.80
12726;DHT22;6427;49.754;6.106;2023-07-13T10:58:47;23.70;58.70
12726;DHT22;6427;49.754;6.106;2023-07-13T11:01:16;23.80;58.00
12726;DHT22;6427;49.754;6.106;2023-07-13T11:06:37;24.00;57.40
12726;DHT22;6427;49.754;6.106;2023-07-13T11:11:50;24.00;57.20
12726;DHT22;6427;49.754;6.106;2023-07-13T11:14:28;23.90;57.50
12726;DHT22;6427;49.754;6.106;2023-07-13T11:16:54;24.00;58.00
12726;DHT22;6427;49.754;6.106;2023-07-13T11:24:53;23.90;57.00
12726;DHT22;6427;49.754;6.106;2023-07-13T11:29:51;23.90;57.20
12726;DHT22;6427;49.754;6.106;2023-07-13T11:32:22;23.90;57.20
12726;DHT22;6427;49.754;6.106;2023-07-13T11:34:50;24.00;57.00
12726;DHT22;6427;49.754;6.106;2023-07-13T11:37:18;24.10;56.60
12726;DHT22;6427;49.754;6.106;2023-07-13T11:39:46;24.10;56.60
12726;DHT22;6427;49.754;6.106;2023-07-13T11:42:13;24.20;56.40
12726;DHT22;6427;49.754;6.106;2023-07-13T11:44:46;24.30;56.10
12726;DHT22;6427;49.754;6.106;2023-07-13T11:47:14;24.30;56.10
12726;DHT22;6427;49.754;6.106;2023-07-13T11:49:43;24.20;55.90
12726;DHT22;6427;49.754;6.106;2023-07-13T11:52:17;24.20;56.30
12726;DHT22;6427;49.754;6.106;2023-07-13T11:54:48;24.40;56.00
12726;DHT22;6427;49.754;6.106;2023-07-13T11:57:27;24.40;55.90
12726;DHT22;6427;49.754;6.106;2023-07-13T11:59:54;24.30;55.80
12726;DHT22;6427;49.754;6.106;2023-07-13T12:02:31;24.30;55.30
12726;DHT22;6427;49.754;6.106;2023-07-13T12:04:49;24.20;55.20
12726;DHT22;6427;49.754;6.106;2023-07-13T12:07:17;24.30;54.80
12726;DHT22;6427;49.754;6.106;2023-07-13T12:09:45;24.20;55.70
12726;DHT22;6427;49.754;6.106;2023-07-13T12:12:13;24.10;55.60
12726;DHT22;6427;49.754;6.106;2023-07-13T12:14:40;24.10;56.20
12726;DHT22;6427;49.754;6.106;2023-07-13T12:17:18;24.00;56.40
12726;DHT22;6427;49.754;6.106;2023-07-13T12:19:44;24.30;54.70
12726;DHT22;6427;49.754;6.106;2023-07-13T12:22:12;24.30;54.70
12726;DHT22;6427;49.754;6.106;2023-07-13T12:24:40;24.30;55.10
12726;DHT22;6427;49.754;6.106;2023-07-13T12:27:21;24.30;55.30
12726;DHT22;6427;49.754;6.106;2023-07-13T12:29:53;24.40;55.00
12726;DHT22;6427;49.754;6.106;2023-07-13T12:32:19;24.40;54.90
12726;DHT22;6427;49.754;6.106;2023-07-13T12:34:53;24.30;54.80
12726;DHT22;6427;49.754;6.106;2023-07-13T12:37:21;24.40;56.40
12726;DHT22;6427;49.754;6.106;2023-07-13T12:39:48;24.30;55.80
12726;DHT22;6427;49.754;6.106;2023-07-13T12:42:20;24.30;55.70
12726;DHT22;6427;49.754;6.106;2023-07-13T12:44:46;24.40;55.40
12726;DHT22;6427;49.754;6.106;2023-07-13T12:47:14;24.60;54.70
12726;DHT22;6427;49.754;6.106;2023-07-13T12:49:43;24.60;54.60
12726;DHT22;6427;49.754;6.106;2023-07-13T12:52:16;24.50;54.80
12726;DHT22;6427;49.754;6.106;2023-07-13T12:54:56;24.60;55.40
12726;DHT22;6427;49.754;6.106;2023-07-13T12:57:21;24.60;55.10
12726;DHT22;6427;49.754;6.106;2023-07-13T12:59:51;24.60;55.30
12726;DHT22;6427;49.754;6.106;2023-07-13T13:02:29;24.50;55.60
12726;DHT22;6427;49.754;6.106;2023-07-13T13:04:55;24.50;56.20
12726;DHT22;6427;49.754;6.106;2023-07-13T13:07:23;24.50;56.70
12726;DHT22;6427;49.754;6.106;2023-07-13T13:09:51;24.70;56.80
12726;DHT22;6427;49.754;6.106;2023-07-13T13:12:19;24.70;56.80
12726;DHT22;6427;49.754;6.106;2023-07-13T13:14:46;24.80;56.40
12726;DHT22;6427;49.754;6.106;2023-07-13T13:17:24;24.90;56.70
12726;DHT22;6427;49.754;6.106;2023-07-13T13:19:47;25.10;56.90
12726;DHT22;6427;49.754;6.106;2023-07-13T13:22:15;25.20;56.20
12726;DHT22;6427;49.754;6.106;2023-07-13T13:24:42;25.30;55.40
12726;DHT22;6427;49.754;6.106;2023-07-13T13:27:19;25.40;55.60
12726;DHT22;6427;49.754;6.106;2023-07-13T13:29:46;25.70;55.00
12726;DHT22;6427;49.754;6.106;2023-07-13T13:32:15;25.80;53.50
12726;DHT22;6427;49.754;6.106;2023-07-13T13:34:42;25.80;53.50
12726;DHT22;6427;49.754;6.106;2023-07-13T13:37:20;25.80;53.90
12726;DHT22;6427;49.754;6.106;2023-07-13T13:39:46;25.80;54.20
12726;DHT22;6427;49.754;6.106;2023-07-13T13:42:14;25.90;54.40
12726;DHT22;6427;49.754;6.106;2023-07-13T13:44:42;26.00;54.10
12726;DHT22;6427;49.754;6.106;2023-07-13T13:49:57;26.00;54.30
12726;DHT22;6427;49.754;6.106;2023-07-13T13:52:25;26.40;53.60
12726;DHT22;6427;49.754;6.106;2023-07-13T13:54:52;26.40;53.60
12726;DHT22;6427;49.754;6.106;2023-07-13T13:57:24;26.70;52.00
12726;DHT22;6427;49.754;6.106;2023-07-13T13:59:51;26.70;51.90
12726;DHT22;6427;49.754;6.106;2023-07-13T14:02:22;26.60;51.60
12726;DHT22;6427;49.754;6.106;2023-07-13T14:04:50;26.70;51.70
12726;DHT22;6427;49.754;6.106;2023-07-13T14:07:17;26.70;51.90
12726;DHT22;6427;49.754;6.106;2023-07-13T14:09:44;26.80;51.90
12726;DHT22;6427;49.754;6.106;2023-07-13T14:12:12;26.80;51.00
12726;DHT22;6427;49.754;6.106;2023-07-13T14:14:39;26.80;50.00
12726;DHT22;6427;49.754;6.106;2023-07-13T14:17:15;26.70;49.20
12726;DHT22;6427;49.754;6.106;2023-07-13T14:19:37;26.70;49.20
12726;DHT22;6427;49.754;6.106;2023-07-13T14:22:06;26.80;49.00
12726;DHT22;6427;49.754;6.106;2023-07-13T14:24:32;26.80;48.50
12726;DHT22;6427;49.754;6.106;2023-07-13T14:27:00;26.80;49.00
12726;DHT22;6427;49.754;6.106;2023-07-13T14:29:28;26.90;47.80
12726;DHT22;6427;49.754;6.106;2023-07-13T14:31:56;26.90;48.20
12726;DHT22;6427;49.754;6.106;2023-07-13T14:34:23;27.00;47.70
12726;DHT22;6427;49.754;6.106;2023-07-13T14:36:51;27.00;48.20
12726;DHT22;6427;49.754;6.106;2023-07-13T14:39:20;27.10;48.10
12726;DHT22;6427;49.754;6.106;2023-07-13T14:41:49;27.20;48.60
12726;DHT22;6427;49.754;6.106;2023-07-13T14:44:19;27.40;47.20
12726;DHT22;6427;49.754;6.106;2023-07-13T14:46:44;27.30;46.60
12726;DHT22;6427;49.754;6.106;2023-07-13T14:49:23;27.40;46.90
12726;DHT22;6427;49.754;6.106;2023-07-13T14:51:49;27.40;46.80
12726;DHT22;6427;49.754;6.106;2023-07-13T14:54:16;27.40;46.30
12726;DHT22;6427;49.754;6.106;2023-07-13T14:56:45;27.60;46.70
12726;DHT22;6427;49.754;6.106;2023-07-13T14:59:13;27.60;46.70
12726;DHT22;6427;49.754;6.106;2023-07-13T15:01:40;27.80;46.10
12726;DHT22;6427;49.754;6.106;2023-07-13T15:04:07;27.90;45.90
12726;DHT22;6427;49.754;6.106;2023-07-13T15:09:21;28.10;45.60
12726;DHT22;6427;49.754;6.106;2023-07-13T15:11:49;28.10;45.40
12726;DHT22;6427;49.754;6.106;2023-07-13T15:14:16;28.10;44.70
12726;DHT22;6427;49.754;6.106;2023-07-13T15:16:44;28.00;44.80
12726;DHT22;6427;49.754;6.106;2023-07-13T15:19:11;27.80;44.80
12726;DHT22;6427;49.754;6.106;2023-07-13T15:21:39;27.90;45.40
12726;DHT22;6427;49.754;6.106;2023-07-13T15:24:07;27.90;45.40
12726;DHT22;6427;49.754;6.106;2023-07-13T15:26:34;27.80;45.30
12726;DHT22;6427;49.754;6.106;2023-07-13T15:29:02;27.80;45.40
12726;DHT22;6427;49.754;6.106;2023-07-13T15:31:29;27.80;45.40
12726;DHT22;6427;49.754;6.106;2023-07-13T15:33:57;27.90;45.30
12726;DHT22;6427;49.754;6.106;2023-07-13T15:36:25;28.00;45.10
12726;DHT22;6427;49.754;6.106;2023-07-13T15:38:54;28.00;45.30
12726;DHT22;6427;49.754;6.106;2023-07-13T15:41:22;28.00;45.20
12726;DHT22;6427;49.754;6.106;2023-07-13T15:43:50;27.90;45.40
12726;DHT22;6427;49.754;6.106;2023-07-13T15:46:20;27.90;45.30
12726;DHT22;6427;49.754;6.106;2023-07-13T15:48:47;27.80;45.50
12726;DHT22;6427;49.754;6.106;2023-07-13T15:51:27;27.60;45.90
12726;DHT22;6427;49.754;6.106;2023-07-13T15:54:01;27.50;46.40
12726;DHT22;6427;49.754;6.106;2023-07-13T15:56:28;27.40;46.40
12726;DHT22;6427;49.754;6.106;2023-07-13T15:58:52;27.30;46.60
12726;DHT22;6427;49.754;6.106;2023-07-13T16:01:20;27.20;46.60
12726;DHT22;6427;49.754;6.106;2023-07-13T16:03:48;27.10;46.90
12726;DHT22;6427;49.754;6.106;2023-07-13T16:06:16;27.00;46.80
12726;DHT22;6427;49.754;6.106;2023-07-13T16:08:43;26.90;47.00
12726;DHT22;6427;49.754;6.106;2023-07-13T16:11:26;27.10;47.00
12726;DHT22;6427;49.754;6.106;2023-07-13T16:13:50;27.20;46.80
12726;DHT22;6427;49.754;6.106;2023-07-13T16:16:25;27.50;46.20